KJXN

Jackson County-Reynolds Field Airport

Jackson, Michigan, USA
METAR KJXN 180206Z AUTO 25004KT 10SM FEW028 SCT040 21/21 A2999 RMK AO2 T02110211
Observed Flight Rules
Aug-18 @ 02:06 UTC (24 minutes ago) Visual Flight Rules
Wind Visibility Clouds
250° at 4 knots 10 miles
  • Few at 2,800' AGL
  • Scattered at 4,000' AGL
Temperatures Readings
Current 21°C / 70°F
Dewpoint 21°C / 70°F
Humidity 100%
Altimeter 29.99" Hg
Pressure 1016 hPa
Elevation 305
METAR KJXN 180206Z AUTO 25004KT 10SM FEW028 SCT040 21/21 A2999 RMK AO2 T02110211
Observed Flight Rules
Aug-18 @ 02:06 UTC
(24 minutes ago)
VFR
Wind Visibility
250° at 4 knots 10 miles
Clouds
  • Few at 2,800' AGL
  • Scattered at 4,000' AGL
Temperature Dewpoint
21°C / 70°F 21°C / 70°F
Humidity Altimeter Pressure
100% 29.99" Hg 1016 hPa